sensor_id;sensor_type;location;lat;lon;timestamp;pressure;altitude;pressure_sealevel;temperature;humidity
23619;BME280;18207;32.078;34.818;2022-09-28T00:00:13;100793.38;;;32.64;39.03
23619;BME280;18207;32.078;34.818;2022-09-28T00:02:43;100791.75;;;32.63;39.05
23619;BME280;18207;32.078;34.818;2022-09-28T00:05:14;100792.97;;;32.62;38.86
23619;BME280;18207;32.078;34.818;2022-09-28T00:07:44;100781.16;;;32.63;38.59
23619;BME280;18207;32.078;34.818;2022-09-28T00:10:17;100786.06;;;32.63;38.95
23619;BME280;18207;32.078;34.818;2022-09-28T00:12:51;100785.25;;;32.62;39.17
23619;BME280;18207;32.078;34.818;2022-09-28T00:15:22;100788.91;;;32.63;39.07
23619;BME280;18207;32.078;34.818;2022-09-28T00:17:53;100784.44;;;32.62;39.29
23619;BME280;18207;32.078;34.818;2022-09-28T00:20:23;100779.16;;;32.60;39.01
23619;BME280;18207;32.078;34.818;2022-09-28T00:22:53;100783.59;;;32.58;38.99
23619;BME280;18207;32.078;34.818;2022-09-28T00:25:26;100780.38;;;32.56;38.99
23619;BME280;18207;32.078;34.818;2022-09-28T00:27:57;100772.69;;;32.53;38.94
23619;BME280;18207;32.078;34.818;2022-09-28T00:30:27;100774.69;;;32.52;39.40
23619;BME280;18207;32.078;34.818;2022-09-28T00:32:57;100773.06;;;32.51;38.89
23619;BME280;18207;32.078;34.818;2022-09-28T00:35:27;100769.03;;;32.49;39.41
23619;BME280;18207;32.078;34.818;2022-09-28T00:37:58;100776.38;;;32.46;39.64
23619;BME280;18207;32.078;34.818;2022-09-28T00:40:31;100778.41;;;32.46;39.18
23619;BME280;18207;32.078;34.818;2022-09-28T00:43:17;100782.88;;;32.43;39.34
23619;BME280;18207;32.078;34.818;2022-09-28T00:45:55;100778.41;;;32.42;38.97
23619;BME280;18207;32.078;34.818;2022-09-28T00:48:32;100776.78;;;32.41;39.54
23619;BME280;18207;32.078;34.818;2022-09-28T00:51:08;100771.53;;;32.40;39.16
23619;BME280;18207;32.078;34.818;2022-09-28T00:53:43;100770.34;;;32.37;39.22
23619;BME280;18207;32.078;34.818;2022-09-28T00:56:19;100777.69;;;32.35;39.29
23619;BME280;18207;32.078;34.818;2022-09-28T00:58:52;100771.59;;;32.33;39.52
23619;BME280;18207;32.078;34.818;2022-09-28T01:01:23;100778.50;;;32.32;39.59
23619;BME280;18207;32.078;34.818;2022-09-28T01:03:53;100778.50;;;32.32;39.57
23619;BME280;18207;32.078;34.818;2022-09-28T01:06:30;100776.06;;;32.30;39.68
23619;BME280;18207;32.078;34.818;2022-09-28T01:09:05;100780.16;;;32.29;39.50
23619;BME280;18207;32.078;34.818;2022-09-28T01:11:39;100779.31;;;32.29;39.50
23619;BME280;18207;32.078;34.818;2022-09-28T01:14:13;100781.78;;;32.30;39.67
23619;BME280;18207;32.078;34.818;2022-09-28T01:16:54;100778.09;;;32.30;39.46
23619;BME280;18207;32.078;34.818;2022-09-28T01:20:03;100774.44;;;32.29;39.88
23619;BME280;18207;32.078;34.818;2022-09-28T01:23:21;100768.38;;;32.27;39.69
23619;BME280;18207;32.078;34.818;2022-09-28T01:26:12;100768.38;;;32.24;39.81
23619;BME280;18207;32.078;34.818;2022-09-28T01:28:49;100765.13;;;32.22;39.60
23619;BME280;18207;32.078;34.818;2022-09-28T01:31:25;100771.25;;;32.21;39.33
23619;BME280;18207;32.078;34.818;2022-09-28T01:34:06;100774.50;;;32.19;39.72
23619;BME280;18207;32.078;34.818;2022-09-28T01:36:46;100772.88;;;32.18;39.67
23619;BME280;18207;32.078;34.818;2022-09-28T01:39:24;100777.75;;;32.18;39.15
23619;BME280;18207;32.078;34.818;2022-09-28T01:42:03;100771.25;;;32.17;39.84
23619;BME280;18207;32.078;34.818;2022-09-28T01:44:40;100775.31;;;32.16;39.41
23619;BME280;18207;32.078;34.818;2022-09-28T01:47:14;100768.81;;;32.16;39.28
23619;BME280;18207;32.078;34.818;2022-09-28T01:49:51;100768.03;;;32.15;39.25
23619;BME280;18207;32.078;34.818;2022-09-28T01:52:29;100777.78;;;32.14;39.72
23619;BME280;18207;32.078;34.818;2022-09-28T01:55:11;100779.00;;;32.13;39.33
23619;BME280;18207;32.078;34.818;2022-09-28T01:57:49;100784.69;;;32.13;39.68
23619;BME280;18207;32.078;34.818;2022-09-28T02:00:23;100789.56;;;32.13;39.44
23619;BME280;18207;32.078;34.818;2022-09-28T02:03:00;100795.25;;;32.13;39.92
23619;BME280;18207;32.078;34.818;2022-09-28T02:05:36;100779.41;;;32.12;39.63
23619;BME280;18207;32.078;34.818;2022-09-28T02:08:12;100786.34;;;32.11;39.37
23619;BME280;18207;32.078;34.818;2022-09-28T02:10:51;100791.19;;;32.10;39.58
23619;BME280;18207;32.078;34.818;2022-09-28T02:13:32;100786.72;;;32.09;39.74
23619;BME280;18207;32.078;34.818;2022-09-28T02:16:12;100780.63;;;32.07;39.48
23619;BME280;18207;32.078;34.818;2022-09-28T02:18:44;100781.84;;;32.06;39.87
23619;BME280;18207;32.078;34.818;2022-09-28T02:21:22;100776.16;;;32.06;39.67
23619;BME280;18207;32.078;34.818;2022-09-28T02:23:58;100783.09;;;32.05;39.76
23619;BME280;18207;32.078;34.818;2022-09-28T02:26:34;100787.94;;;32.05;39.81
23619;BME280;18207;32.078;34.818;2022-09-28T02:29:07;100785.53;;;32.03;39.76
23619;BME280;18207;32.078;34.818;2022-09-28T02:31:37;100781.06;;;32.02;39.60
23619;BME280;18207;32.078;34.818;2022-09-28T02:34:08;100783.06;;;32.02;39.69
23619;BME280;18207;32.078;34.818;2022-09-28T02:36:38;100777.81;;;32.00;39.72
23619;BME280;18207;32.078;34.818;2022-09-28T02:39:13;100776.59;;;31.98;39.46
23619;BME280;18207;32.078;34.818;2022-09-28T02:41:54;100783.09;;;31.95;39.96
23619;BME280;18207;32.078;34.818;2022-09-28T02:44:49;100777.44;;;31.91;39.58
23619;BME280;18207;32.078;34.818;2022-09-28T02:47:37;100783.13;;;31.88;39.88
23619;BME280;18207;32.078;34.818;2022-09-28T02:50:26;100785.59;;;31.86;39.60
23619;BME280;18207;32.078;34.818;2022-09-28T02:53:36;100783.56;;;31.83;40.04
23619;BME280;18207;32.078;34.818;2022-09-28T02:56:37;100791.28;;;31.82;39.66
23619;BME280;18207;32.078;34.818;2022-09-28T02:59:26;100792.09;;;31.83;39.78
23619;BME280;18207;32.078;34.818;2022-09-28T03:02:10;100789.25;;;31.83;39.65
23619;BME280;18207;32.078;34.818;2022-09-28T03:04:53;100798.59;;;31.83;39.78
23619;BME280;18207;32.078;34.818;2022-09-28T03:07:33;100796.16;;;31.82;39.93
23619;BME280;18207;32.078;34.818;2022-09-28T03:10:14;100802.66;;;31.82;39.65
23619;BME280;18207;32.078;34.818;2022-09-28T03:12:48;100798.59;;;31.83;40.01
23619;BME280;18207;32.078;34.818;2022-09-28T03:15:22;100802.66;;;31.82;40.18
23619;BME280;18207;32.078;34.818;2022-09-28T03:17:56;100803.44;;;31.83;39.70
23619;BME280;18207;32.078;34.818;2022-09-28T03:20:27;100801.03;;;31.81;39.67
23619;BME280;18207;32.078;34.818;2022-09-28T03:22:58;100805.91;;;31.81;40.35
23619;BME280;18207;32.078;34.818;2022-09-28T03:25:48;100808.34;;;31.79;40.24
23619;BME280;18207;32.078;34.818;2022-09-28T03:28:19;100805.09;;;31.77;39.83
23619;BME280;18207;32.078;34.818;2022-09-28T03:30:50;100812.00;;;31.76;40.00
23619;BME280;18207;32.078;34.818;2022-09-28T03:33:23;100809.59;;;31.74;40.56
23619;BME280;18207;32.078;34.818;2022-09-28T03:35:53;100805.94;;;31.70;40.19
23619;BME280;18207;32.078;34.818;2022-09-28T03:38:23;100805.16;;;31.66;40.16
23619;BME280;18207;32.078;34.818;2022-09-28T03:40:55;100809.22;;;31.62;40.27
23619;BME280;18207;32.078;34.818;2022-09-28T03:43:26;100805.53;;;31.54;40.15
23619;BME280;18207;32.078;34.818;2022-09-28T03:45:58;100803.53;;;31.48;39.77
23619;BME280;18207;32.078;34.818;2022-09-28T03:48:33;100804.75;;;31.43;40.19
23619;BME280;18207;32.078;34.818;2022-09-28T03:51:06;100803.13;;;31.39;40.30
23619;BME280;18207;32.078;34.818;2022-09-28T03:53:37;100803.56;;;31.37;40.27
23619;BME280;18207;32.078;34.818;2022-09-28T03:56:13;100807.59;;;31.36;40.06
23619;BME280;18207;32.078;34.818;2022-09-28T03:58:44;100809.22;;;31.34;40.04
23619;BME280;18207;32.078;34.818;2022-09-28T04:01:15;100808.84;;;31.32;40.43
23619;BME280;18207;32.078;34.818;2022-09-28T04:03:53;100816.94;;;31.30;40.05
23619;BME280;18207;32.078;34.818;2022-09-28T04:06:24;100816.53;;;31.28;40.27
23619;BME280;18207;32.078;34.818;2022-09-28T04:08:55;100816.13;;;31.26;40.37
23619;BME280;18207;32.078;34.818;2022-09-28T04:11:25;100823.84;;;31.26;40.29
23619;BME280;18207;32.078;34.818;2022-09-28T04:14:15;100816.13;;;31.23;40.15
23619;BME280;18207;32.078;34.818;2022-09-28T04:16:45;100824.22;;;31.24;40.50
23619;BME280;18207;32.078;34.818;2022-09-28T04:19:17;100822.59;;;31.23;40.09
23619;BME280;18207;32.078;34.818;2022-09-28T04:21:47;100831.53;;;31.25;40.22
23619;BME280;18207;32.078;34.818;2022-09-28T04:24:19;100828.69;;;31.29;40.59
23619;BME280;18207;32.078;34.818;2022-09-28T04:26:49;100825.47;;;31.33;40.86
23619;BME280;18207;32.078;34.818;2022-09-28T04:29:40;100828.69;;;31.39;40.71
23619;BME280;18207;32.078;34.818;2022-09-28T04:32:11;100833.56;;;31.45;40.41
23619;BME280;18207;32.078;34.818;2022-09-28T04:34:43;100829.91;;;31.52;41.07
23619;BME280;18207;32.078;34.818;2022-09-28T04:37:13;100834.41;;;31.60;40.98
23619;BME280;18207;32.078;34.818;2022-09-28T04:39:44;100838.00;;;31.67;40.71
23619;BME280;18207;32.078;34.818;2022-09-28T04:42:15;100833.13;;;31.75;40.72
23619;BME280;18207;32.078;34.818;2022-09-28T04:44:47;100838.00;;;31.81;40.96
23619;BME280;18207;32.078;34.818;2022-09-28T04:47:17;100829.06;;;31.86;40.50
23619;BME280;18207;32.078;34.818;2022-09-28T04:49:52;100830.66;;;31.94;40.77
23619;BME280;18207;32.078;34.818;2022-09-28T04:52:23;100832.66;;;32.01;41.25
23619;BME280;18207;32.078;34.818;2022-09-28T04:54:53;100833.47;;;32.08;40.63
23619;BME280;18207;32.078;34.818;2022-09-28T04:57:23;100845.63;;;32.16;41.07
23619;BME280;18207;32.078;34.818;2022-09-28T04:59:53;100846.41;;;32.23;41.12
23619;BME280;18207;32.078;34.818;2022-09-28T05:02:23;100838.25;;;32.32;41.28
23619;BME280;18207;32.078;34.818;2022-09-28T05:04:56;100843.50;;;32.40;41.09
23619;BME280;18207;32.078;34.818;2022-09-28T05:07:27;100843.84;;;32.49;40.52
23619;BME280;18207;32.078;34.818;2022-09-28T05:09:58;100849.94;;;32.58;40.62
23619;BME280;18207;32.078;34.818;2022-09-28T05:12:28;100853.13;;;32.67;40.56
23619;BME280;18207;32.078;34.818;2022-09-28T05:14:58;100854.72;;;32.75;40.73
23619;BME280;18207;32.078;34.818;2022-09-28T05:17:29;100853.44;;;32.83;40.52
23619;BME280;18207;32.078;34.818;2022-09-28T05:20:01;100870.47;;;32.90;40.86
23619;BME280;18207;32.078;34.818;2022-09-28T05:22:32;100863.53;;;32.95;40.59
23619;BME280;18207;32.078;34.818;2022-09-28T05:25:04;100864.31;;;32.99;40.27
23619;BME280;18207;32.078;34.818;2022-09-28T05:27:34;100858.59;;;33.02;40.23
23619;BME280;18207;32.078;34.818;2022-09-28T05:30:06;100858.16;;;33.07;40.08
23619;BME280;18207;32.078;34.818;2022-09-28T05:32:39;100858.13;;;33.14;39.95
23619;BME280;18207;32.078;34.818;2022-09-28T05:35:11;100860.13;;;33.20;40.39
23619;BME280;18207;32.078;34.818;2022-09-28T05:37:42;100855.97;;;33.28;40.31
23619;BME280;18207;32.078;34.818;2022-09-28T05:40:13;100859.97;;;33.34;39.83
23619;BME280;18207;32.078;34.818;2022-09-28T05:42:43;100857.94;;;33.38;39.83
23619;BME280;18207;32.078;34.818;2022-09-28T05:45:14;100858.72;;;33.42;39.84
23619;BME280;18207;32.078;34.818;2022-09-28T05:47:44;100863.56;;;33.45;40.14
23619;BME280;18207;32.078;34.818;2022-09-28T05:50:16;100861.06;;;33.51;40.34
23619;BME280;18207;32.078;34.818;2022-09-28T05:52:56;100861.03;;;33.54;39.75
23619;BME280;18207;32.078;34.818;2022-09-28T05:55:27;100865.91;;;33.57;40.38
23619;BME280;18207;32.078;34.818;2022-09-28T05:57:58;100856.09;;;33.62;40.06
23619;BME280;18207;32.078;34.818;2022-09-28T06:00:31;100860.94;;;33.68;39.78
23619;BME280;18207;32.078;34.818;2022-09-28T06:03:04;100855.16;;;33.75;40.37
23619;BME280;18207;32.078;34.818;2022-09-28T06:05:38;100861.16;;;33.84;39.92
23619;BME280;18207;32.078;34.818;2022-09-28T06:08:09;100855.00;;;33.89;40.23
23619;BME280;18207;32.078;34.818;2022-09-28T06:10:40;100856.97;;;33.96;40.34
23619;BME280;18207;32.078;34.818;2022-09-28T06:13:10;100863.81;;;34.02;40.33
23619;BME280;18207;32.078;34.818;2022-09-28T06:15:42;100862.97;;;34.08;40.21
23619;BME280;18207;32.078;34.818;2022-09-28T06:18:13;100855.94;;;34.16;40.48
23619;BME280;18207;32.078;34.818;2022-09-28T06:20:46;100865.25;;;34.23;40.04
23619;BME280;18207;32.078;34.818;2022-09-28T06:23:16;100862.28;;;34.30;40.18
23619;BME280;18207;32.078;34.818;2022-09-28T06:25:46;100851.16;;;34.39;40.28
23619;BME280;18207;32.078;34.818;2022-09-28T06:28:16;100861.25;;;34.47;39.72
23619;BME280;18207;32.078;34.818;2022-09-28T06:30:47;100850.53;;;34.55;39.95
23619;BME280;18207;32.078;34.818;2022-09-28T06:33:17;100854.94;;;34.63;40.18
23619;BME280;18207;32.078;34.818;2022-09-28T06:35:49;100847.09;;;34.70;39.91
23619;BME280;18207;32.078;34.818;2022-09-28T06:38:19;100847.81;;;34.78;40.13
23619;BME280;18207;32.078;34.818;2022-09-28T06:40:49;100849.75;;;34.84;40.13
23619;BME280;18207;32.078;34.818;2022-09-28T06:43:19;100837.38;;;34.91;40.30
23619;BME280;18207;32.078;34.818;2022-09-28T06:45:51;100841.78;;;34.98;39.73
23619;BME280;18207;32.078;34.818;2022-09-28T06:48:22;100847.41;;;35.05;39.72
23619;BME280;18207;32.078;34.818;2022-09-28T06:50:54;100849.28;;;35.15;39.59
23619;BME280;18207;32.078;34.818;2022-09-28T06:53:25;100847.13;;;35.23;39.60
23619;BME280;18207;32.078;34.818;2022-09-28T06:55:55;100854.31;;;35.31;39.87
23619;BME280;18207;32.078;34.818;2022-09-28T06:58:26;100846.44;;;35.38;39.74
23619;BME280;18207;32.078;34.818;2022-09-28T07:00:57;100849.56;;;35.47;39.60
23619;BME280;18207;32.078;34.818;2022-09-28T07:03:28;100849.91;;;35.53;39.56
23619;BME280;18207;32.078;34.818;2022-09-28T07:06:00;100843.59;;;35.61;39.25
23619;BME280;18207;32.078;34.818;2022-09-28T07:08:31;100847.13;;;35.69;39.52
23619;BME280;18207;32.078;34.818;2022-09-28T07:11:06;100832.31;;;35.74;39.54
23619;BME280;18207;32.078;34.818;2022-09-28T07:13:36;100834.31;;;35.77;38.99
23619;BME280;18207;32.078;34.818;2022-09-28T07:16:22;100828.50;;;35.80;39.21
23619;BME280;18207;32.078;34.818;2022-09-28T07:19:13;100833.28;;;35.86;39.54
23619;BME280;18207;32.078;34.818;2022-09-28T07:21:45;100834.03;;;35.90;38.91
23619;BME280;18207;32.078;34.818;2022-09-28T07:24:29;100825.75;;;35.96;38.83
23619;BME280;18207;32.078;34.818;2022-09-28T07:27:00;100821.16;;;36.02;38.85
23619;BME280;18207;32.078;34.818;2022-09-28T07:29:32;100829.25;;;36.07;38.87
23619;BME280;18207;32.078;34.818;2022-09-28T07:32:02;100829.56;;;36.12;38.79
23619;BME280;18207;32.078;34.818;2022-09-28T07:34:32;100824.53;;;36.16;38.70
23619;BME280;18207;32.078;34.818;2022-09-28T07:37:09;100824.84;;;36.22;39.40
23619;BME280;18207;32.078;34.818;2022-09-28T07:39:40;100823.88;;;36.28;38.75
23619;BME280;18207;32.078;34.818;2022-09-28T07:42:27;100812.78;;;36.30;38.53
23619;BME280;18207;32.078;34.818;2022-09-28T07:44:58;100810.66;;;36.34;38.94
23619;BME280;18207;32.078;34.818;2022-09-28T07:47:27;100813.00;;;36.39;38.58
23619;BME280;18207;32.078;34.818;2022-09-28T07:50:02;100814.56;;;36.44;38.45
23619;BME280;18207;32.078;34.818;2022-09-28T07:52:36;100810.75;;;36.50;38.63
23619;BME280;18207;32.078;34.818;2022-09-28T07:55:07;100806.09;;;36.56;38.52
23619;BME280;18207;32.078;34.818;2022-09-28T07:57:38;100800.66;;;36.62;38.80
23619;BME280;18207;32.078;34.818;2022-09-28T08:00:10;100814.81;;;36.69;39.02
23619;BME280;18207;32.078;34.818;2022-09-28T08:02:41;100806.94;;;36.73;38.46
23619;BME280;18207;32.078;34.818;2022-09-28T08:05:11;100808.09;;;36.75;38.98
23619;BME280;18207;32.078;34.818;2022-09-28T08:07:44;100810.47;;;36.80;38.74
23619;BME280;18207;32.078;34.818;2022-09-28T08:10:15;100805.50;;;36.80;38.92
23619;BME280;18207;32.078;34.818;2022-09-28T08:12:45;100801.41;;;36.81;38.73
23619;BME280;18207;32.078;34.818;2022-09-28T08:15:16;100805.88;;;36.82;38.86
23619;BME280;18207;32.078;34.818;2022-09-28T08:17:47;100802.56;;;36.84;38.59
23619;BME280;18207;32.078;34.818;2022-09-28T08:20:18;100811.88;;;36.88;38.22
23619;BME280;18207;32.078;34.818;2022-09-28T08:23:08;100800.38;;;36.91;38.70
23619;BME280;18207;32.078;34.818;2022-09-28T08:25:39;100807.63;;;36.96;38.13
23619;BME280;18207;32.078;34.818;2022-09-28T08:28:09;100798.47;;;37.01;38.12
23619;BME280;18207;32.078;34.818;2022-09-28T08:30:41;100790.25;;;37.03;38.28
23619;BME280;18207;32.078;34.818;2022-09-28T08:33:12;100787.28;;;37.06;38.39
23619;BME280;18207;32.078;34.818;2022-09-28T08:35:44;100795.81;;;37.10;37.88
23619;BME280;18207;32.078;34.818;2022-09-28T08:38:17;100792.84;;;37.13;37.59
23619;BME280;18207;32.078;34.818;2022-09-28T08:41:01;100793.56;;;37.17;37.89
23619;BME280;18207;32.078;34.818;2022-09-28T08:46:55;100795.91;;;37.22;38.07
23619;BME280;18207;32.078;34.818;2022-09-28T08:49:34;100785.59;;;37.25;37.81
23619;BME280;18207;32.078;34.818;2022-09-28T08:52:14;100775.28;;;37.27;37.33
23619;BME280;18207;32.078;34.818;2022-09-28T08:54:54;100774.00;;;37.28;37.35
23619;BME280;18207;32.078;34.818;2022-09-28T08:57:32;100778.50;;;37.29;37.27
23619;BME280;18207;32.078;34.818;2022-09-28T09:00:09;100772.75;;;37.29;37.62
23619;BME280;18207;32.078;34.818;2022-09-28T09:02:43;100770.34;;;37.28;37.62
23619;BME280;18207;32.078;34.818;2022-09-28T09:05:17;100769.53;;;37.27;37.23
23619;BME280;18207;32.078;34.818;2022-09-28T09:08:17;100764.25;;;37.26;36.99
23619;BME280;18207;32.078;34.818;2022-09-28T09:11:02;100762.63;;;37.25;37.06
23619;BME280;18207;32.078;34.818;2022-09-28T09:14:26;100759.78;;;37.25;37.03
23619;BME280;18207;32.078;34.818;2022-09-28T09:17:14;100755.66;;;37.26;37.38
23619;BME280;18207;32.078;34.818;2022-09-28T09:19:54;100747.84;;;37.26;36.63
23619;BME280;18207;32.078;34.818;2022-09-28T09:22:38;100759.78;;;37.25;36.50
23619;BME280;18207;32.078;34.818;2022-09-28T09:25:19;100752.41;;;37.24;37.03
23619;BME280;18207;32.078;34.818;2022-09-28T09:28:16;100757.38;;;37.23;36.95
23619;BME280;18207;32.078;34.818;2022-09-28T09:31:06;100754.13;;;37.21;37.09
23619;BME280;18207;32.078;34.818;2022-09-28T09:34:16;100757.00;;;37.21;36.53
23619;BME280;18207;32.078;34.818;2022-09-28T09:37:14;100752.97;;;37.19;36.21
23619;BME280;18207;32.078;34.818;2022-09-28T09:40:16;100751.00;;;37.16;36.16
23619;BME280;18207;32.078;34.818;2022-09-28T09:43:19;100750.22;;;37.15;36.76
23619;BME280;18207;32.078;34.818;2022-09-28T09:46:14;100736.31;;;37.14;36.61
23619;BME280;18207;32.078;34.818;2022-09-28T09:48:51;100740.78;;;37.15;36.04
23619;BME280;18207;32.078;34.818;2022-09-28T09:51:37;100737.13;;;37.14;35.87
23619;BME280;18207;32.078;34.818;2022-09-28T09:54:19;100738.81;;;37.12;36.04
23619;BME280;18207;32.078;34.818;2022-09-28T09:56:57;100738.81;;;37.12;36.11
23619;BME280;18207;32.078;34.818;2022-09-28T09:59:35;100744.13;;;37.13;35.63
23619;BME280;18207;32.078;34.818;2022-09-28T10:02:23;100746.53;;;37.15;36.29
23619;BME280;18207;32.078;34.818;2022-09-28T10:04:59;100743.66;;;37.15;35.58
23619;BME280;18207;32.078;34.818;2022-09-28T10:07:40;100746.16;;;37.13;35.55
23619;BME280;18207;32.078;34.818;2022-09-28T10:10:19;100745.47;;;37.09;35.48
23619;BME280;18207;32.078;34.818;2022-09-28T10:12:52;100752.44;;;37.08;36.06
23619;BME280;18207;32.078;34.818;2022-09-28T10:15:27;100750.47;;;37.05;35.90
23619;BME280;18207;32.078;34.818;2022-09-28T10:18:03;100744.84;;;37.01;35.84
23619;BME280;18207;32.078;34.818;2022-09-28T10:20:38;100744.47;;;36.99;35.67
23619;BME280;18207;32.078;34.818;2022-09-28T10:23:18;100743.69;;;36.99;36.10
23619;BME280;18207;32.078;34.818;2022-09-28T10:25:55;100738.38;;;36.97;35.91
23619;BME280;18207;32.078;34.818;2022-09-28T10:28:39;100734.72;;;36.97;35.76
23619;BME280;18207;32.078;34.818;2022-09-28T10:31:42;100736.53;;;36.91;36.15
23619;BME280;18207;32.078;34.818;2022-09-28T10:34:18;100738.63;;;36.87;35.80
23619;BME280;18207;32.078;34.818;2022-09-28T10:36:56;100737.47;;;36.84;35.67
23619;BME280;18207;32.078;34.818;2022-09-28T10:39:32;100738.72;;;36.83;35.88
23619;BME280;18207;32.078;34.818;2022-09-28T10:42:07;100733.88;;;36.80;35.77
23619;BME280;18207;32.078;34.818;2022-09-28T10:44:59;100736.81;;;36.77;36.23
23619;BME280;18207;32.078;34.818;2022-09-28T10:47:35;100726.34;;;36.71;35.67
23619;BME280;18207;32.078;34.818;2022-09-28T10:50:20;100726.91;;;36.66;35.51
23619;BME280;18207;32.078;34.818;2022-09-28T10:52:51;100726.16;;;36.62;36.23
23619;BME280;18207;32.078;34.818;2022-09-28T10:55:28;100735.63;;;36.59;35.73
23619;BME280;18207;32.078;34.818;2022-09-28T10:58:22;100728.75;;;36.56;35.74
23619;BME280;18207;32.078;34.818;2022-09-28T11:01:00;100731.69;;;36.53;35.65
23619;BME280;18207;32.078;34.818;2022-09-28T11:03:33;100734.28;;;36.47;35.69
23619;BME280;18207;32.078;34.818;2022-09-28T11:06:11;100727.81;;;36.43;36.08
23619;BME280;18207;32.078;34.818;2022-09-28T11:08:44;100722.97;;;36.40;36.40
23619;BME280;18207;32.078;34.818;2022-09-28T11:11:16;100733.25;;;36.38;36.18
23619;BME280;18207;32.078;34.818;2022-09-28T11:13:50;100731.19;;;36.38;36.10
23619;BME280;18207;32.078;34.818;2022-09-28T11:16:27;100725.09;;;36.36;36.09
23619;BME280;18207;32.078;34.818;2022-09-28T11:19:09;100723.94;;;36.34;36.51
23619;BME280;18207;32.078;34.818;2022-09-28T11:21:55;100734.75;;;36.26;35.91
23619;BME280;18207;32.078;34.818;2022-09-28T11:24:26;100722.13;;;36.24;36.15
23619;BME280;18207;32.078;34.818;2022-09-28T11:26:59;100724.25;;;36.20;36.45
23619;BME280;18207;32.078;34.818;2022-09-28T11:29:40;100713.25;;;36.18;36.67
23619;BME280;18207;32.078;34.818;2022-09-28T11:32:13;100710.03;;;36.16;36.51
23619;BME280;18207;32.078;34.818;2022-09-28T11:34:48;100711.28;;;36.15;36.20
23619;BME280;18207;32.078;34.818;2022-09-28T11:37:46;100706.00;;;36.14;36.22
23619;BME280;18207;32.078;34.818;2022-09-28T11:40:33;100697.03;;;36.12;36.67
23619;BME280;18207;32.078;34.818;2022-09-28T11:43:20;100700.78;;;36.09;36.64
23619;BME280;18207;32.078;34.818;2022-09-28T11:46:05;100703.72;;;36.05;36.50
23619;BME280;18207;32.078;34.818;2022-09-28T11:48:42;100702.94;;;36.05;37.02
23619;BME280;18207;32.078;34.818;2022-09-28T11:51:23;100709.91;;;36.04;36.83
23619;BME280;18207;32.078;34.818;2022-09-28T11:54:01;100710.78;;;36.01;36.68
23619;BME280;18207;32.078;34.818;2022-09-28T11:56:46;100702.28;;;35.97;37.07
23619;BME280;18207;32.078;34.818;2022-09-28T11:59:23;100693.28;;;35.95;36.54
23619;BME280;18207;32.078;34.818;2022-09-28T12:01:59;100690.50;;;35.92;37.22
23619;BME280;18207;32.078;34.818;2022-09-28T12:04:38;100686.03;;;35.91;37.44
23619;BME280;18207;32.078;34.818;2022-09-28T12:07:17;100682.00;;;35.88;36.79
23619;BME280;18207;32.078;34.818;2022-09-28T12:09:56;100684.06;;;35.88;37.39
23619;BME280;18207;32.078;34.818;2022-09-28T12:12:34;100684.88;;;35.88;37.01
23619;BME280;18207;32.078;34.818;2022-09-28T12:15:15;100689.44;;;35.86;37.43
23619;BME280;18207;32.078;34.818;2022-09-28T12:17:54;100689.94;;;35.81;37.53
23619;BME280;18207;32.078;34.818;2022-09-28T12:20:29;100687.59;;;35.76;37.00
23619;BME280;18207;32.078;34.818;2022-09-28T12:23:10;100682.38;;;35.71;37.01
23619;BME280;18207;32.078;34.818;2022-09-28T12:25:48;100680.06;;;35.66;37.03
23619;BME280;18207;32.078;34.818;2022-09-28T12:28:31;100685.41;;;35.64;37.09
23619;BME280;18207;32.078;34.818;2022-09-28T12:31:13;100694.06;;;35.61;36.84
23619;BME280;18207;32.078;34.818;2022-09-28T12:33:48;100690.44;;;35.57;37.54
23619;BME280;18207;32.078;34.818;2022-09-28T12:36:41;100685.25;;;35.52;37.04
23619;BME280;18207;32.078;34.818;2022-09-28T12:39:38;100687.72;;;35.50;37.10
23619;BME280;18207;32.078;34.818;2022-09-28T12:42:54;100698.84;;;35.44;37.69
23619;BME280;18207;32.078;34.818;2022-09-28T12:45:53;100689.53;;;35.40;37.52
23619;BME280;18207;32.078;34.818;2022-09-28T12:49:16;100685.56;;;35.34;37.28
23619;BME280;18207;32.078;34.818;2022-09-28T12:52:27;100690.13;;;35.32;37.49
23619;BME280;18207;32.078;34.818;2022-09-28T12:55:39;100693.06;;;35.28;37.19
23619;BME280;18207;32.078;34.818;2022-09-28T12:58:43;100693.47;;;35.27;37.63
23619;BME280;18207;32.078;34.818;2022-09-28T13:01:59;100700.44;;;35.26;37.41
23619;BME280;18207;32.078;34.818;2022-09-28T13:05:00;100692.38;;;35.21;37.92
23619;BME280;18207;32.078;34.818;2022-09-28T13:07:44;100709.97;;;35.19;38.05
23619;BME280;18207;32.078;34.818;2022-09-28T13:10:25;100710.38;;;35.18;38.05
23619;BME280;18207;32.078;34.818;2022-09-28T13:13:26;100718.25;;;35.14;37.36
23619;BME280;18207;32.078;34.818;2022-09-28T13:16:07;100712.16;;;35.12;37.58
23619;BME280;18207;32.078;34.818;2022-09-28T13:18:54;100717.09;;;35.08;37.63
23619;BME280;18207;32.078;34.818;2022-09-28T13:21:41;100720.81;;;35.05;37.81
23619;BME280;18207;32.078;34.818;2022-09-28T13:24:20;100718.84;;;35.02;38.13
23619;BME280;18207;32.078;34.818;2022-09-28T13:27:08;100717.66;;;34.99;38.34
23619;BME280;18207;32.078;34.818;2022-09-28T13:29:43;100721.81;;;34.95;38.40
23619;BME280;18207;32.078;34.818;2022-09-28T13:32:17;100724.72;;;34.92;38.07
23619;BME280;18207;32.078;34.818;2022-09-28T13:34:49;100721.91;;;34.88;37.95
23619;BME280;18207;32.078;34.818;2022-09-28T13:37:25;100719.13;;;34.85;38.38